Time;durP1;ratioP1;P1;durP2;ratioP2;P2;SDS_P1;SDS_P2;PMS_P1;PMS_P2;Temp;Humidity;BMP_temperature;BMP_pressure;BME280_temperature;BME280_humidity;BME280_pressure;Samples;Min_cycle;Max_cycle;Signal;HPM_P1;HPM_P2
2021/08/08 00:00:23;;;;;;;0.50;0.50;;;;;;;17.79;100.00;99598.50;5017523;28;20091;-69
2021/08/08 00:02:49;;;;;;;0.80;0.68;;;;;;;18.05;100.00;99604.81;5021204;28;20030;-68
2021/08/08 00:05:14;;;;;;;1.58;0.60;;;;;;;18.33;100.00;99612.22;5030002;28;20109;-68
2021/08/08 00:07:41;;;;;;;0.47;0.47;;;;;;;18.37;100.00;99603.94;5023867;28;20038;-68
2021/08/08 00:10:09;;;;;;;0.82;0.77;;;;;;;18.48;100.00;99610.66;5028549;28;20037;-68
2021/08/08 00:12:35;;;;;;;0.60;0.60;;;;;;;18.36;100.00;99610.59;5029959;28;20076;-68
2021/08/08 00:15:01;;;;;;;0.50;0.50;;;;;;;18.32;100.00;99601.75;5029439;28;20038;-68
2021/08/08 00:17:27;;;;;;;0.52;0.50;;;;;;;18.29;100.00;99619.72;5028092;28;20040;-68
2021/08/08 00:19:53;;;;;;;0.90;0.57;;;;;;;18.22;100.00;99627.34;5028808;28;20497;-68
2021/08/08 00:22:19;;;;;;;0.60;0.47;;;;;;;17.89;100.00;99645.72;5028252;28;20481;-69
2021/08/08 00:24:44;;;;;;;0.30;0.30;;;;;;;17.90;100.00;99639.84;5030461;28;20053;-68
2021/08/08 00:27:11;;;;;;;0.57;0.50;;;;;;;18.04;100.00;99639.47;5021653;28;20029;-67
2021/08/08 00:29:36;;;;;;;0.77;0.60;;;;;;;17.95;100.00;99644.78;5027613;28;20413;-68
2021/08/08 00:32:06;;;;;;;0.65;0.65;;;;;;;17.82;100.00;99632.31;5024123;28;20040;-68
2021/08/08 00:34:31;;;;;;;0.82;0.60;;;;;;;17.90;100.00;99626.22;5028227;28;20030;-68
2021/08/08 00:37:01;;;;;;;0.68;0.63;;;;;;;18.04;100.00;99630.53;5030212;28;20044;-68
2021/08/08 00:39:29;;;;;;;0.57;0.57;;;;;;;17.73;100.00;99624.72;5028963;28;20029;-67
2021/08/08 00:41:55;;;;;;;0.75;0.50;;;;;;;17.63;100.00;99627.75;5016647;28;20025;-68
2021/08/08 00:44:21;;;;;;;0.68;0.63;;;;;;;17.58;100.00;99630.97;5028950;28;20020;-67
2021/08/08 00:46:47;;;;;;;0.90;0.80;;;;;;;17.76;100.00;99623.88;5028072;28;20047;-65
2021/08/08 00:49:13;;;;;;;0.70;0.70;;;;;;;17.54;100.00;99622.88;5025208;28;20037;-65
2021/08/08 00:51:40;;;;;;;0.70;0.50;;;;;;;17.79;100.00;99624.97;5029335;28;20033;-66
2021/08/08 00:54:08;;;;;;;0.60;0.60;;;;;;;17.50;100.00;99635.06;5025302;28;20401;-66
2021/08/08 00:56:38;;;;;;;0.68;0.50;;;;;;;17.75;100.00;99637.94;5028335;28;20034;-68
2021/08/08 00:59:05;;;;;;;0.65;0.40;;;;;;;17.82;100.00;99641.25;5025960;28;20033;-67
2021/08/08 01:01:43;;;;;;;0.75;0.65;;;;;;;17.78;100.00;99647.97;5027035;28;20525;-68
2021/08/08 01:04:16;;;;;;;1.23;0.82;;;;;;;17.86;100.00;99647.38;5030836;28;20497;-67
2021/08/08 01:06:51;;;;;;;1.10;0.77;;;;;;;17.80;100.00;99654.53;5028796;28;20406;-68
2021/08/08 01:09:23;;;;;;;0.57;0.57;;;;;;;17.81;100.00;99649.81;5024611;28;20025;-68
2021/08/08 01:11:50;;;;;;;1.27;1.17;;;;;;;18.01;100.00;99653.19;5026421;28;20099;-68
2021/08/08 01:14:17;;;;;;;0.82;0.60;;;;;;;17.80;100.00;99651.81;5020392;28;20029;-67
2021/08/08 01:16:49;;;;;;;0.47;0.47;;;;;;;17.66;100.00;99652.16;5027339;28;20108;-68
2021/08/08 01:19:18;;;;;;;0.80;0.65;;;;;;;17.59;100.00;99655.06;5028717;28;20490;-68
2021/08/08 01:21:47;;;;;;;0.50;0.40;;;;;;;17.58;100.00;99647.28;5027854;28;20064;-67
2021/08/08 01:24:13;;;;;;;0.50;0.40;;;;;;;17.61;100.00;99651.91;5025089;28;20025;-68
2021/08/08 01:26:42;;;;;;;0.80;0.80;;;;;;;17.52;100.00;99657.94;5028450;28;20132;-68
2021/08/08 01:29:07;;;;;;;0.43;0.43;;;;;;;17.56;100.00;99657.84;5030064;28;20104;-68
2021/08/08 01:31:33;;;;;;;0.60;0.43;;;;;;;17.36;100.00;99668.03;5021483;28;20156;-68
2021/08/08 01:33:59;;;;;;;0.90;0.70;;;;;;;17.34;100.00;99663.03;5024278;28;20029;-68
2021/08/08 01:36:25;;;;;;;1.08;0.60;;;;;;;17.30;100.00;99662.34;5027765;28;20041;-68
2021/08/08 01:39:02;;;;;;;0.80;0.73;;;;;;;17.22;100.00;99662.91;5028957;28;20056;-68
2021/08/08 01:41:38;;;;;;;0.35;0.35;;;;;;;17.08;100.00;99667.50;5036238;28;20434;-68
2021/08/08 01:44:05;;;;;;;1.08;0.40;;;;;;;17.22;100.00;99658.25;5024097;28;20063;-68
2021/08/08 01:46:35;;;;;;;0.80;0.52;;;;;;;17.14;100.00;99656.88;5027864;28;20033;-69
2021/08/08 01:49:11;;;;;;;0.50;0.50;;;;;;;17.13;100.00;99658.03;5026147;28;20383;-68
2021/08/08 01:51:38;;;;;;;0.68;0.60;;;;;;;17.13;100.00;99655.31;5030056;28;20103;-67
2021/08/08 01:54:04;;;;;;;0.57;0.50;;;;;;;17.13;100.00;99655.31;5031606;28;20394;-68
2021/08/08 01:56:33;;;;;;;0.60;0.60;;;;;;;17.01;100.00;99647.84;5030589;28;20068;-67
2021/08/08 01:59:00;;;;;;;0.63;0.50;;;;;;;17.11;100.00;99657.72;5023932;28;20025;-69
2021/08/08 02:01:28;;;;;;;0.50;0.50;;;;;;;16.92;100.00;99663.97;5031200;28;20029;-68
2021/08/08 02:03:55;;;;;;;0.50;0.50;;;;;;;16.90;100.00;99666.31;5031399;28;20504;-68
2021/08/08 02:06:21;;;;;;;0.50;0.50;;;;;;;16.88;100.00;99665.97;5027312;28;20108;-68
2021/08/08 02:08:52;;;;;;;0.75;0.57;;;;;;;16.87;100.00;99673.41;5029763;28;20124;-67
2021/08/08 02:11:18;;;;;;;0.40;0.35;;;;;;;16.83;100.00;99669.97;5027119;28;20161;-67
2021/08/08 02:13:53;;;;;;;0.60;0.60;;;;;;;16.83;100.00;99666.50;5026924;28;20021;-68
2021/08/08 02:16:19;;;;;;;0.32;0.32;;;;;;;16.83;100.00;99671.94;5031182;28;20033;-68
2021/08/08 02:18:45;;;;;;;0.47;0.47;;;;;;;16.93;100.00;99679.88;5031293;28;20061;-68
2021/08/08 02:21:16;;;;;;;0.60;0.50;;;;;;;16.75;100.00;99670.53;5028434;28;20665;-68
2021/08/08 02:23:42;;;;;;;0.80;0.60;;;;;;;16.90;100.00;99669.06;5034390;28;20067;-67
2021/08/08 02:26:07;;;;;;;1.35;0.80;;;;;;;16.87;100.00;99662.53;5035147;28;20029;-68
2021/08/08 02:28:38;;;;;;;0.50;0.50;;;;;;;16.85;100.00;99669.56;5031938;28;20036;-68
2021/08/08 02:31:04;;;;;;;0.52;0.52;;;;;;;17.02;100.00;99657.53;5021441;28;20300;-67
2021/08/08 02:33:30;;;;;;;0.52;0.52;;;;;;;16.85;100.00;99664.88;5027404;28;20021;-68
2021/08/08 02:35:57;;;;;;;0.60;0.45;;;;;;;16.82;100.00;99668.44;5034214;28;20565;-68
2021/08/08 02:38:28;;;;;;;0.40;0.40;;;;;;;16.80;100.00;99656.47;5030763;28;20025;-68
2021/08/08 02:40:59;;;;;;;0.70;0.70;;;;;;;16.67;100.00;99655.56;5030233;28;20053;-67
2021/08/08 02:43:24;;;;;;;0.60;0.45;;;;;;;16.41;100.00;99656.47;5025358;28;20287;-69
2021/08/08 02:45:50;;;;;;;0.82;0.60;;;;;;;16.26;100.00;99666.81;5030746;28;20120;-68
2021/08/08 02:48:18;;;;;;;0.75;0.70;;;;;;;16.46;100.00;99667.59;5026970;28;20052;-67
2021/08/08 02:50:44;;;;;;;0.40;0.40;;;;;;;16.32;100.00;99670.59;5026679;28;20025;-67
2021/08/08 02:53:10;;;;;;;0.40;0.40;;;;;;;16.27;100.00;99674.56;5030086;28;20037;-68
2021/08/08 02:55:39;;;;;;;0.60;0.55;;;;;;;16.21;100.00;99668.09;5031267;28;20053;-68
2021/08/08 02:58:04;;;;;;;0.52;0.40;;;;;;;16.30;100.00;99664.81;5024758;28;20494;-68
2021/08/08 03:00:33;;;;;;;0.70;0.60;;;;;;;16.45;100.00;99668.03;5029723;28;20029;-67
2021/08/08 03:02:59;;;;;;;0.65;0.65;;;;;;;16.37;100.00;99670.13;5026781;28;20021;-68
2021/08/08 03:05:25;;;;;;;0.60;0.60;;;;;;;16.40;100.00;99671.22;5013395;28;20030;-69
2021/08/08 03:07:51;;;;;;;0.73;0.60;;;;;;;16.39;100.00;99683.28;5029964;28;20083;-68
2021/08/08 03:10:17;;;;;;;0.43;0.43;;;;;;;16.26;100.00;99685.84;5027123;28;20036;-68
2021/08/08 03:12:43;;;;;;;0.75;0.70;;;;;;;16.25;100.00;99678.88;5028758;28;20075;-68
2021/08/08 03:15:09;;;;;;;0.73;0.63;;;;;;;16.28;100.00;99678.03;5026428;28;20037;-67
2021/08/08 03:17:34;;;;;;;0.80;0.55;;;;;;;16.27;100.00;99688.16;5030258;28;20082;-68
2021/08/08 03:20:00;;;;;;;0.40;0.35;;;;;;;16.35;100.00;99688.78;5030198;28;20123;-68
2021/08/08 03:22:27;;;;;;;0.70;0.70;;;;;;;16.32;100.00;99681.47;5026909;28;20037;-68
2021/08/08 03:24:52;;;;;;;0.50;0.50;;;;;;;16.26;100.00;99681.19;5012616;28;20037;-67
2021/08/08 03:27:18;;;;;;;0.60;0.60;;;;;;;16.41;100.00;99684.41;5045401;22;20021;-68
2021/08/08 03:29:46;;;;;;;0.50;0.40;;;;;;;16.50;100.00;99687.34;5046452;28;20094;-68
2021/08/08 03:32:12;;;;;;;1.35;0.60;;;;;;;16.46;100.00;99688.56;5052047;28;20029;-68
2021/08/08 03:34:38;;;;;;;0.60;0.50;;;;;;;16.43;100.00;99692.13;5055193;28;20029;-67
2021/08/08 03:37:04;;;;;;;0.70;0.60;;;;;;;16.13;100.00;99684.91;5060863;28;20028;-67
2021/08/08 03:39:32;;;;;;;0.70;0.70;;;;;;;16.26;100.00;99686.63;5053586;28;20123;-68
2021/08/08 03:41:57;;;;;;;0.75;0.70;;;;;;;16.39;100.00;99686.00;5049623;28;20123;-68
2021/08/08 03:44:24;;;;;;;0.80;0.70;;;;;;;16.10;100.00;99689.22;5053941;28;20157;-68
2021/08/08 03:46:49;;;;;;;0.60;0.60;;;;;;;16.26;100.00;99694.75;5071280;28;20449;-67
2021/08/08 03:49:15;;;;;;;1.10;0.65;;;;;;;16.16;100.00;99698.44;5049763;28;20024;-68
2021/08/08 03:51:42;;;;;;;0.70;0.70;;;;;;;15.80;100.00;99691.31;5069992;28;20033;-68
2021/08/08 03:54:07;;;;;;;0.90;0.70;;;;;;;15.92;100.00;99702.38;5052790;28;20025;-67
2021/08/08 03:56:35;;;;;;;0.70;0.60;;;;;;;15.72;100.00;99709.66;5052759;28;20032;-68
2021/08/08 03:59:01;;;;;;;0.60;0.60;;;;;;;15.95;100.00;99703.50;5052598;28;20416;-68
2021/08/08 04:01:28;;;;;;;0.35;0.25;;;;;;;16.04;100.00;99701.78;5052152;28;20102;-67
2021/08/08 04:03:53;;;;;;;0.50;0.40;;;;;;;15.75;100.00;99694.50;5043206;28;20496;-67
2021/08/08 04:06:18;;;;;;;0.70;0.70;;;;;;;16.06;100.00;99704.06;5068799;28;20081;-67
2021/08/08 04:08:45;;;;;;;0.73;0.60;;;;;;;15.86;100.00;99706.72;5060462;28;20074;-68
2021/08/08 04:11:12;;;;;;;0.60;0.50;;;;;;;15.73;100.00;99713.94;5050559;28;20024;-67
2021/08/08 04:13:38;;;;;;;2.10;1.15;;;;;;;15.84;100.00;99719.19;5049321;28;20025;-68
2021/08/08 04:16:04;;;;;;;0.80;0.60;;;;;;;15.60;100.00;99718.38;5052673;28;20063;-67
2021/08/08 04:18:29;;;;;;;1.23;0.60;;;;;;;15.71;100.00;99716.28;5070086;28;20115;-67
2021/08/08 04:20:54;;;;;;;0.60;0.57;;;;;;;15.81;100.00;99715.38;5041813;28;20396;-67
2021/08/08 04:23:21;;;;;;;0.85;0.50;;;;;;;15.69;100.00;99715.94;5047747;28;20029;-68
2021/08/08 04:25:47;;;;;;;1.92;0.70;;;;;;;15.90;100.00;99712.09;5050507;28;20403;-67
2021/08/08 04:28:13;;;;;;;0.47;0.47;;;;;;;15.93;100.00;99716.72;5052209;28;20029;-67
2021/08/08 04:30:40;;;;;;;1.63;0.70;;;;;;;16.00;100.00;99717.38;5051505;28;20055;-67
2021/08/08 04:33:06;;;;;;;0.32;0.32;;;;;;;15.77;100.00;99725.50;5069738;28;20020;-67
2021/08/08 04:35:32;;;;;;;1.08;0.50;;;;;;;15.84;100.00;99724.63;5050278;28;20032;-68
2021/08/08 04:38:00;;;;;;;0.55;0.55;;;;;;;15.91;100.00;99727.97;5052027;28;20100;-67
2021/08/08 04:40:27;;;;;;;0.30;0.30;;;;;;;15.97;100.00;99723.59;5031827;28;20028;-67
2021/08/08 04:42:53;;;;;;;0.38;0.38;;;;;;;16.13;100.00;99721.00;5035775;28;20033;-67
2021/08/08 04:45:20;;;;;;;0.60;0.50;;;;;;;16.34;100.00;99724.53;5051037;28;20021;-67
2021/08/08 04:47:47;;;;;;;0.32;0.32;;;;;;;16.16;100.00;99728.31;5035145;28;20028;-68
2021/08/08 04:50:14;;;;;;;0.40;0.30;;;;;;;16.13;100.00;99731.88;5052025;28;20033;-67
2021/08/08 04:52:40;;;;;;;0.60;0.50;;;;;;;15.96;100.00;99732.94;5047600;28;20047;-67
2021/08/08 04:55:08;;;;;;;0.57;0.52;;;;;;;15.90;100.00;99731.09;5042606;28;20036;-68
2021/08/08 04:57:33;;;;;;;0.93;0.40;;;;;;;16.00;100.00;99728.22;5022666;28;20043;-67
2021/08/08 04:59:59;;;;;;;0.73;0.45;;;;;;;15.99;100.00;99726.69;5066023;28;20155;-68
2021/08/08 05:02:24;;;;;;;0.63;0.40;;;;;;;16.19;100.00;99726.72;5060161;28;20037;-67
2021/08/08 05:04:50;;;;;;;0.40;0.40;;;;;;;16.18;100.00;99725.97;5050362;28;20033;-68
2021/08/08 05:07:16;;;;;;;0.80;0.60;;;;;;;16.16;100.00;99728.31;5044944;28;20039;-67
2021/08/08 05:09:41;;;;;;;0.55;0.47;;;;;;;16.02;100.00;99725.09;5062514;28;20032;-67
2021/08/08 05:12:08;;;;;;;0.40;0.40;;;;;;;16.16;100.00;99724.84;5050593;28;20035;-67
2021/08/08 05:14:37;;;;;;;0.50;0.40;;;;;;;16.01;100.00;99718.88;5050774;28;20029;-67
2021/08/08 05:17:03;;;;;;;0.60;0.40;;;;;;;16.24;100.00;99737.88;5065618;28;20059;-68
2021/08/08 05:19:29;;;;;;;0.38;0.38;;;;;;;16.38;100.00;99725.22;5051661;28;20025;-68
2021/08/08 05:21:55;;;;;;;0.68;0.45;;;;;;;16.46;100.00;99746.44;5049068;28;20029;-67
2021/08/08 05:24:20;;;;;;;0.50;0.32;;;;;;;16.25;100.00;99739.44;5050980;28;20505;-67
2021/08/08 05:26:46;;;;;;;0.38;0.35;;;;;;;16.34;100.00;99740.84;5054422;28;20082;-68
2021/08/08 05:29:13;;;;;;;0.98;0.40;;;;;;;16.34;100.00;99740.84;5053122;28;20077;-67
2021/08/08 05:31:40;;;;;;;0.40;0.32;;;;;;;16.47;100.00;99744.50;5059411;28;20060;-68
2021/08/08 05:34:07;;;;;;;0.60;0.40;;;;;;;16.36;100.00;99749.31;5046994;28;20119;-67
2021/08/08 05:36:32;;;;;;;0.40;0.40;;;;;;;16.41;100.00;99743.44;5049695;28;20043;-68
2021/08/08 05:38:59;;;;;;;0.28;0.28;;;;;;;16.44;100.00;99748.78;5040328;28;20036;-68
2021/08/08 05:41:25;;;;;;;0.20;0.20;;;;;;;16.54;100.00;99752.53;5046392;28;20393;-68
2021/08/08 05:43:50;;;;;;;0.80;0.50;;;;;;;16.59;100.00;99760.22;5062433;28;20047;-68
2021/08/08 05:46:16;;;;;;;0.38;0.30;;;;;;;16.95;100.00;99747.47;5059952;28;20040;-67
2021/08/08 05:48:42;;;;;;;0.43;0.43;;;;;;;17.33;100.00;99764.13;5048146;28;20028;-68
2021/08/08 05:51:08;;;;;;;0.35;0.28;;;;;;;17.43;100.00;99774.81;5036950;28;20484;-67
2021/08/08 05:53:33;;;;;;;0.40;0.40;;;;;;;17.31;100.00;99774.69;5048224;28;20041;-68
2021/08/08 05:55:59;;;;;;;0.57;0.45;;;;;;;17.01;100.00;99771.00;5051758;28;20025;-67
2021/08/08 05:58:24;;;;;;;0.43;0.43;;;;;;;16.76;100.00;99772.72;5053342;28;20032;-67
2021/08/08 06:00:50;;;;;;;0.80;0.45;;;;;;;16.95;100.00;99775.44;5054135;28;20111;-67
2021/08/08 06:03:16;;;;;;;0.55;0.45;;;;;;;16.58;100.00;99780.41;5050237;28;20441;-67
2021/08/08 06:05:43;;;;;;;0.50;0.50;;;;;;;16.57;100.00;99787.06;5062036;28;20038;-67
2021/08/08 06:08:09;;;;;;;0.50;0.50;;;;;;;16.19;100.00;99783.78;5041562;28;20493;-67
2021/08/08 06:10:35;;;;;;;0.63;0.40;;;;;;;16.07;100.00;99771.56;5060303;28;20035;-67
2021/08/08 06:13:02;;;;;;;0.50;0.50;;;;;;;16.10;100.00;99787.03;5054899;28;20035;-67
2021/08/08 06:15:28;;;;;;;0.70;0.50;;;;;;;16.43;100.00;99792.69;5054922;28;20028;-67
2021/08/08 06:17:54;;;;;;;0.40;0.40;;;;;;;16.08;100.00;99783.97;5048605;28;20036;-67
2021/08/08 06:20:21;;;;;;;0.52;0.50;;;;;;;16.12;100.00;99789.34;5055962;28;20144;-67
2021/08/08 06:22:49;;;;;;;0.50;0.50;;;;;;;16.15;100.00;99796.66;5053042;28;20027;-67
2021/08/08 06:25:15;;;;;;;0.55;0.55;;;;;;;16.27;100.00;99790.66;5053064;28;20115;-67
2021/08/08 06:27:42;;;;;;;0.50;0.43;;;;;;;16.50;100.00;99798.03;5061036;28;20036;-69
2021/08/08 06:30:08;;;;;;;1.05;0.55;;;;;;;16.44;100.00;99803.16;5059933;28;20040;-69
2021/08/08 06:32:34;;;;;;;0.95;0.50;;;;;;;16.51;100.00;99800.34;5053507;28;20024;-69
2021/08/08 06:35:02;;;;;;;0.50;0.50;;;;;;;16.66;100.00;99803.59;5050350;28;20024;-69
2021/08/08 06:37:28;;;;;;;0.98;0.70;;;;;;;16.34;100.00;99806.06;5050523;28;20029;-69
2021/08/08 06:39:53;;;;;;;0.60;0.50;;;;;;;16.34;100.00;99814.97;5062641;28;20671;-69
2021/08/08 06:42:19;;;;;;;0.90;0.60;;;;;;;16.29;100.00;99812.75;5053484;28;20052;-69
2021/08/08 06:44:47;;;;;;;1.30;0.70;;;;;;;16.46;100.00;99810.88;5048944;28;20025;-69
2021/08/08 06:47:13;;;;;;;0.52;0.50;;;;;;;16.36;100.00;99817.28;5068076;28;20066;-69
2021/08/08 06:49:38;;;;;;;0.50;0.50;;;;;;;16.67;100.00;99818.69;5072072;28;20032;-70
2021/08/08 06:52:04;;;;;;;0.43;0.43;;;;;;;16.23;100.00;99817.09;5042426;28;20480;-70
2021/08/08 06:54:30;;;;;;;0.70;0.70;;;;;;;16.25;100.00;99820.94;5058094;28;20403;-69
2021/08/08 06:56:58;;;;;;;2.25;0.43;;;;;;;16.22;100.00;99810.13;5041450;28;20025;-69
2021/08/08 06:59:29;;;;;;;0.52;0.45;;;;;;;16.36;100.00;99823.47;5052246;28;20040;-67
2021/08/08 07:01:57;;;;;;;0.50;0.50;;;;;;;16.16;100.00;99814.50;5042673;28;20430;-67
2021/08/08 07:04:23;;;;;;;0.73;0.63;;;;;;;16.57;100.00;99822.41;5036398;28;20032;-68
2021/08/08 07:06:49;;;;;;;0.80;0.50;;;;;;;16.72;100.00;99823.66;5035828;28;20112;-67
2021/08/08 07:09:14;;;;;;;0.90;0.60;;;;;;;16.91;100.00;99828.38;5037221;28;20441;-67
2021/08/08 07:11:40;;;;;;;0.60;0.55;;;;;;;16.73;100.00;99834.13;5036778;28;20040;-67
2021/08/08 07:14:14;;;;;;;0.80;0.68;;;;;;;16.54;100.00;99837.59;5023086;28;20139;-67
2021/08/08 07:16:40;;;;;;;1.95;0.70;;;;;;;16.67;100.00;99835.00;5036564;28;20143;-67
2021/08/08 07:19:05;;;;;;;0.85;0.60;;;;;;;16.51;100.00;99832.94;5043444;28;20029;-67
2021/08/08 07:21:31;;;;;;;0.65;0.45;;;;;;;16.45;100.00;99840.03;5049499;28;20039;-67
2021/08/08 07:23:58;;;;;;;0.45;0.45;;;;;;;16.63;100.00;99845.19;5047796;28;20040;-67
2021/08/08 07:26:24;;;;;;;1.20;0.85;;;;;;;16.40;100.00;99842.44;5043608;28;20017;-68
2021/08/08 07:28:49;;;;;;;0.80;0.60;;;;;;;16.38;100.00;99842.09;5063183;28;20585;-67
2021/08/08 07:31:15;;;;;;;0.80;0.73;;;;;;;16.53;100.00;99829.84;5053314;28;20107;-68
2021/08/08 07:33:40;;;;;;;0.63;0.63;;;;;;;16.41;100.00;99838.56;5053852;28;20028;-67
2021/08/08 07:36:07;;;;;;;1.80;1.35;;;;;;;16.56;100.00;99840.66;5050928;28;20028;-67
2021/08/08 07:38:32;;;;;;;0.80;0.63;;;;;;;16.69;100.00;99840.81;5052739;28;20020;-67
2021/08/08 07:40:58;;;;;;;1.20;0.88;;;;;;;16.69;100.00;99849.72;5034115;28;20028;-67
2021/08/08 07:43:23;;;;;;;1.17;0.98;;;;;;;16.55;100.00;99851.94;5070006;28;20037;-67
2021/08/08 07:45:49;;;;;;;1.33;0.85;;;;;;;16.56;100.00;99851.53;5044088;28;20028;-68
2021/08/08 07:48:16;;;;;;;1.00;0.88;;;;;;;16.61;100.00;99859.19;5039263;28;20086;-67
2021/08/08 07:50:41;;;;;;;0.90;0.70;;;;;;;16.82;100.00;99860.78;5051881;28;20032;-68
2021/08/08 07:53:07;;;;;;;0.95;0.70;;;;;;;16.73;100.00;99866.00;5051850;28;20037;-67
2021/08/08 07:55:35;;;;;;;1.08;0.85;;;;;;;16.84;100.00;99861.88;5052983;28;20028;-67
2021/08/08 07:58:01;;;;;;;1.30;0.90;;;;;;;16.51;100.00;99864.81;5054085;28;20033;-67
2021/08/08 08:00:27;;;;;;;0.75;0.60;;;;;;;16.54;100.00;99869.44;5054945;28;20063;-67
2021/08/08 08:02:59;;;;;;;0.80;0.80;;;;;;;16.54;100.00;99883.03;5028515;28;20037;-68
2021/08/08 08:05:28;;;;;;;0.85;0.70;;;;;;;16.62;100.00;99877.06;5049609;28;20238;-67
2021/08/08 08:07:54;;;;;;;0.70;0.70;;;;;;;16.44;100.00;99886.63;5059198;28;20070;-68
2021/08/08 08:10:19;;;;;;;1.05;0.80;;;;;;;16.37;100.00;99886.75;5052570;28;20052;-67
2021/08/08 08:12:45;;;;;;;1.00;0.93;;;;;;;16.38;100.00;99893.72;5054017;28;20032;-67
2021/08/08 08:15:11;;;;;;;1.40;0.85;;;;;;;16.34;100.00;99893.78;5036925;28;20078;-67
2021/08/08 08:17:36;;;;;;;0.68;0.68;;;;;;;16.35;100.00;99894.56;5037849;28;20063;-67
2021/08/08 08:20:04;;;;;;;1.00;0.88;;;;;;;16.51;100.00;99903.63;5037029;28;20501;-67
2021/08/08 08:22:30;;;;;;;1.38;0.90;;;;;;;16.30;100.00;99905.91;5044681;28;20033;-67
2021/08/08 08:24:55;;;;;;;1.48;1.10;;;;;;;16.42;100.00;99908.81;5052662;28;20067;-68
2021/08/08 08:27:20;;;;;;;1.48;1.00;;;;;;;16.56;100.00;99911.34;5065702;28;20090;-68
2021/08/08 08:29:46;;;;;;;1.38;1.10;;;;;;;16.49;100.00;99914.16;5060496;28;20067;-67
2021/08/08 08:32:11;;;;;;;1.10;0.98;;;;;;;16.80;100.00;99925.72;5057542;28;20397;-67
2021/08/08 08:34:37;;;;;;;1.33;1.10;;;;;;;16.67;100.00;99914.66;5036384;28;20489;-68
2021/08/08 08:37:03;;;;;;;1.83;1.40;;;;;;;16.62;100.00;99915.13;5048150;28;20055;-67
2021/08/08 08:39:29;;;;;;;1.52;1.10;;;;;;;16.74;100.00;99925.38;5053186;28;20371;-67
2021/08/08 08:41:57;;;;;;;2.95;1.30;;;;;;;17.05;100.00;99937.69;5038668;28;20098;-68
2021/08/08 08:44:25;;;;;;;1.23;0.98;;;;;;;16.75;100.00;99939.75;5040874;28;20509;-67
2021/08/08 08:46:55;;;;;;;1.00;0.88;;;;;;;16.92;100.00;99927.81;5031368;28;20112;-67
2021/08/08 08:49:22;;;;;;;2.60;2.40;;;;;;;16.92;100.00;99938.69;5046998;28;20068;-67
2021/08/08 08:51:56;;;;;;;1.70;1.30;;;;;;;16.96;100.00;99945.63;5040327;28;20104;-68
2021/08/08 08:54:22;;;;;;;1.50;1.30;;;;;;;17.02;100.00;99948.63;5035754;28;20028;-68
2021/08/08 08:56:49;;;;;;;1.27;1.17;;;;;;;17.02;100.00;99954.06;5054377;28;20036;-69
2021/08/08 08:59:17;;;;;;;1.63;1.35;;;;;;;17.23;100.00;99959.13;5061608;28;21543;-67
2021/08/08 09:01:43;;;;;;;1.38;1.20;;;;;;;17.27;100.00;99965.28;5024355;28;20116;-68
2021/08/08 09:04:08;;;;;;;1.50;1.17;;;;;;;17.50;100.00;99969.97;5041426;28;20560;-68
2021/08/08 09:06:35;;;;;;;2.33;1.13;;;;;;;17.68;100.00;99975.81;5040965;28;20039;-67
2021/08/08 09:09:01;;;;;;;1.85;1.17;;;;;;;17.54;100.00;99979.59;5037859;28;20028;-68
2021/08/08 09:11:37;;;;;;;1.33;1.17;;;;;;;17.68;100.00;99973.88;5041345;28;20496;-67
2021/08/08 09:14:03;;;;;;;2.10;1.20;;;;;;;17.47;100.00;99981.66;5050248;28;20147;-68
2021/08/08 09:16:39;;;;;;;1.50;1.05;;;;;;;17.43;100.00;99995.34;5050551;28;20067;-68
2021/08/08 09:19:06;;;;;;;1.48;1.23;;;;;;;17.49;100.00;99999.16;5040544;28;20033;-67
2021/08/08 09:21:34;;;;;;;1.35;1.10;;;;;;;17.45;100.00;99995.69;5048149;28;20040;-67
2021/08/08 09:24:02;;;;;;;2.20;1.45;;;;;;;17.31;100.00;99995.16;5050280;28;20398;-67
2021/08/08 09:26:34;;;;;;;1.70;1.33;;;;;;;17.38;100.00;99992.31;5022574;28;20032;-67
2021/08/08 09:29:09;;;;;;;2.70;1.83;;;;;;;17.36;100.00;100006.38;5047412;22;20015;-68
2021/08/08 09:31:46;;;;;;;1.15;1.05;;;;;;;17.22;100.00;100009.31;5003707;28;20300;-68
2021/08/08 09:34:29;;;;;;;2.40;1.42;;;;;;;17.45;100.00;100017.47;5029160;28;20033;-68
2021/08/08 09:36:57;;;;;;;3.60;1.40;;;;;;;17.19;100.00;100018.31;5025120;28;20037;-68
2021/08/08 09:39:31;;;;;;;2.35;1.23;;;;;;;17.24;100.00;100026.00;5015894;28;20056;-68
2021/08/08 09:42:08;;;;;;;2.55;1.27;;;;;;;17.25;100.00;100026.78;5009960;28;20450;-68
2021/08/08 09:44:34;;;;;;;2.85;1.40;;;;;;;17.20;100.00;100029.97;5026692;28;20064;-68
2021/08/08 09:46:59;;;;;;;2.58;1.20;;;;;;;17.38;100.00;100042.06;5026858;28;20072;-67
2021/08/08 09:49:25;;;;;;;3.03;1.27;;;;;;;17.35;100.00;100047.59;5029446;28;20033;-68
2021/08/08 09:51:51;;;;;;;1.77;1.38;;;;;;;17.37;100.00;100045.22;5029699;28;20026;-68
2021/08/08 09:54:17;;;;;;;1.52;1.13;;;;;;;17.45;100.00;100044.69;5030130;28;20503;-67
2021/08/08 09:56:43;;;;;;;2.08;1.42;;;;;;;17.39;100.00;100042.84;5029492;28;20117;-68
2021/08/08 09:59:08;;;;;;;1.52;1.25;;;;;;;17.56;100.00;100052.69;5027911;28;20061;-68
2021/08/08 10:01:40;;;;;;;1.52;1.23;;;;;;;17.65;100.00;100061.84;5027838;28;20637;-67
2021/08/08 10:04:06;;;;;;;1.50;1.10;;;;;;;17.64;100.00;100057.59;5023172;28;20021;-68
2021/08/08 10:06:33;;;;;;;1.92;1.42;;;;;;;17.71;100.00;100057.47;5024677;28;20065;-68
2021/08/08 10:09:01;;;;;;;1.33;1.15;;;;;;;17.53;100.00;100062.47;5023993;28;20038;-67
2021/08/08 10:11:28;;;;;;;1.63;1.00;;;;;;;17.96;100.00;100060.50;5022739;28;20448;-68
2021/08/08 10:14:02;;;;;;;1.73;1.10;;;;;;;17.88;100.00;100071.97;5014613;28;20144;-68
2021/08/08 10:16:33;;;;;;;1.67;1.08;;;;;;;17.91;100.00;100080.06;5032578;28;20072;-68
2021/08/08 10:19:01;;;;;;;1.88;1.45;;;;;;;17.88;100.00;100074.69;5023523;28;20428;-68
2021/08/08 10:21:28;;;;;;;3.28;1.30;;;;;;;18.15;100.00;100077.28;5032186;28;20033;-68
2021/08/08 10:24:01;;;;;;;1.58;1.20;;;;;;;17.68;100.00;100077.38;5032646;28;20029;-68
2021/08/08 10:26:27;;;;;;;2.17;1.25;;;;;;;17.82;100.00;100076.34;5010560;28;20073;-68
2021/08/08 10:28:53;;;;;;;2.38;1.25;;;;;;;17.60;100.00;100083.34;5029489;28;20122;-68
2021/08/08 10:31:22;;;;;;;1.40;1.00;;;;;;;17.82;100.00;100076.34;5029416;28;20389;-68
2021/08/08 10:33:49;;;;;;;1.75;1.20;;;;;;;17.94;100.00;100081.19;5030445;28;20044;-68
2021/08/08 10:36:26;;;;;;;2.78;1.40;;;;;;;18.08;100.00;100083.63;5027589;28;20417;-68
2021/08/08 10:39:04;;;;;;;1.45;0.90;;;;;;;18.21;100.00;100078.31;5032890;28;20055;-68
2021/08/08 10:41:30;;;;;;;1.90;1.55;;;;;;;18.30;100.00;100079.28;5031844;28;20120;-68
2021/08/08 10:44:04;;;;;;;1.75;1.35;;;;;;;18.11;100.00;100080.06;5027380;28;20100;-68
2021/08/08 10:46:29;;;;;;;1.70;1.23;;;;;;;18.10;100.00;100086.69;5014727;28;20116;-68
2021/08/08 10:49:02;;;;;;;1.30;1.17;;;;;;;18.35;100.00;100086.97;5026242;28;20170;-68
2021/08/08 10:51:27;;;;;;;2.25;1.17;;;;;;;18.59;100.00;100079.47;5020159;28;20095;-68
2021/08/08 10:54:05;;;;;;;1.38;1.13;;;;;;;18.89;100.00;100074.50;5014243;28;20104;-68
2021/08/08 10:56:46;;;;;;;1.27;1.13;;;;;;;19.16;100.00;100085.22;5026065;28;20082;-68
2021/08/08 10:59:16;;;;;;;1.55;0.93;;;;;;;19.38;100.00;100083.50;5012920;28;20116;-68
2021/08/08 11:01:41;;;;;;;1.55;1.20;;;;;;;19.93;100.00;100089.91;5024239;28;20072;-68
2021/08/08 11:04:07;;;;;;;1.52;1.15;;;;;;;20.19;100.00;100083.34;5014375;28;20086;-68
2021/08/08 11:06:34;;;;;;;1.17;1.08;;;;;;;20.55;100.00;100089.31;5030109;28;20037;-68
2021/08/08 11:09:02;;;;;;;1.13;0.82;;;;;;;20.55;100.00;100090.09;5032434;28;20059;-68
2021/08/08 11:11:29;;;;;;;0.73;0.73;;;;;;;20.74;100.00;100102.03;5030424;28;20021;-68
2021/08/08 11:14:06;;;;;;;0.95;0.88;;;;;;;;;;5013907;28;20025;-68
2021/08/08 11:16:31;;;;;;;1.10;0.93;;;;;;;20.03;96.67;100110.72;5027934;28;20120;-68
2021/08/08 11:18:57;;;;;;;3.47;1.50;;;;;;;20.08;96.59;100112.91;5011838;28;20133;-68
2021/08/08 11:21:25;;;;;;;1.10;1.00;;;;;;;20.18;98.47;100109.13;5009741;28;20475;-68
2021/08/08 11:23:59;;;;;;;1.10;0.90;;;;;;;20.08;97.28;100115.66;5023538;28;20044;-68